Aviation Digital Data Service (ADDS)

Output produced by METARs form (1934 UTC 18 June 2019)
found at http://www.aviationweather.gov/metar/data/
 
KEET 181853Z AUTO 20008KT 10SM SCT040 BKN050 29/21 A2993 RMK AO2 LTG DSNT N SLP129 T02890206
KEET 181742Z 1818/1918 18007KT P6SM SHRA FEW060 SCT070 
     TEMPO 1820/1823 20010G20KT 2SM TSRA BKN040CB OVC250 
     FM190100 17006KT P6SM VCSH BKN050 
     FM190800 19003KT P6SM OVC025 
     FM191400 24006KT P6SM BKN050
       
K8A0 181915Z AUTO 00000KT 10SM SCT016 SCT022 BKN028 26/20 A2995 RMK AO2
K79J 181927Z AUTO 25004KT 2 1/2SM TSRA BR FEW008 SCT070 OVC100 24/22 A2998 RMK AO2 TSE13B24 P0005 T02440222
KANB 181853Z AUTO 00000KT 10SM SCT015 SCT021 BKN055 27/24 A2995 RMK AO2 LTG DSNT N AND SE RAE28 SLP133 P0001 T02720239
KANB 181742Z 1818/1918 20003KT P6SM SHRA VCTS SCT045CB BKN070 
     TEMPO 1818/1821 20012G25KT 2SM TSRA BKN035CB OVC070 
     FM182100 19004KT P6SM SHRA BKN035 BKN250 
     FM190600 VRB03KT P6SM OVC015 
     FM191400 24005KT P6SM BKN025
       
KAUO 181856Z AUTO 22005KT 10SM -RA FEW021 SCT039 BKN046 25/24 A2999 RMK AO2 RAE08B33 SLP167 P0001 T02500244
KEKY 181856Z AUTO 24012G15KT 10SM 30/22 A2994 RMK AO2 LTG DSNT N SLP144 T03000217 $
KBHM 181853Z 00000KT 10SM FEW010 SCT018 SCT027 BKN250 27/23 A2995 RMK AO2 LTG DSNT NW RAB31E49 TSB05E20 SLP134 TS MOV NE P0038 T02670228
KBHM 181742Z 1818/1918 18008KT P6SM SHRA SCT015 BKN040 BKN250 
     TEMPO 1820/1823 20010G20KT 2SM TSRA BKN040CB OVC250 
     FM190100 20006KT P6SM VCSH BKN050 
     FM190900 19005KT P6SM OVC025 
     FM191300 24008KT P6SM BKN050
       
KDCU 181853Z AUTO 18008KT 10SM FEW032 SCT044 BKN070 28/22 A2993 RMK AO2 SLP126 T02830222
KDYA 181915Z AUTO 00000KT 10SM BKN021 OVC029 28/22 A2991 RMK AO2 T02800222
KDHN 181853Z 27007KT 10SM CLR 27/23 A3001 RMK AO2 RAE23 SLP157 P0002 T02670228
KDHN 181823Z 1818/1918 23011KT P6SM VCTS BKN035CB 
     FM190000 19005KT P6SM BKN250 
     FM190900 21004KT P6SM BKN015 
     FM191500 22006KT P6SM BKN050
       
KEDN 181915Z AUTO 27003KT 10SM SCT065 SCT085 25/25 A2998 RMK AO2 LTG DSNT N THRU S T02510251
KGZH 181917Z AUTO 00000KT 10SM -RA BKN011 BKN060 OVC120 24/22 A2998 RMK AO2 P0001 T02440217
KCQF 181915Z AUTO 00000KT 10SM CLR 26/24 A2995 RMK AO2
K0J4 181917Z AUTO 00000KT 5SM TSRA BR FEW013 BKN036 OVC065 23/22 A3001 RMK AO2 TSB17 P0020 T02330217
K4A9 181915Z AUTO 17003KT 10SM SCT010 SCT017 26/23 A2995 RMK AO2 T02590234
KGAD 181930Z AUTO 00000KT 9SM -RA SCT011 BKN025 BKN036 25/25 A2995 RMK AO2 RAB17 P0002
KPRN 181856Z AUTO 20003KT 3SM RA BR FEW055 BKN110 22/20 A2999 RMK AO2 RAB03 TSB02B03E39 SLP151 P0066 T02220200 $
KJKA 181915Z AUTO 00000KT 10SM SCT014 SCT021 26/24 A2996 RMK AO2 LTG DSNT SE T02630238
K1M4 181911Z AUTO 25003KT 10SM FEW016 28/22 A2994 RMK AO2
KHSV 181853Z 19007KT 10SM BKN038 BKN044 BKN075 29/21 A2992 RMK AO2 SLP124 T02890211
KHSV 181825Z 1818/1918 19008KT 6SM -SHRA OVC035 
     TEMPO 1820/1824 VRB15KT 4SM -TSRA OVC015CB 
     FM190100 VRB04KT P6SM SCT050 BKN180 
     FM190600 14003KT P6SM OVC012 
     FM191500 22010KT P6SM BKN050
       
KMDQ 181915Z AUTO 00000KT 10SM SCT028 BKN040 OVC065 28/21 A2992 RMK A02 T02760212
KJFX 181915Z AUTO 10SM CLR 31/23 A2990 RMK AO2
KA08 181915Z AUTO 19011G16KT 10SM SCT015 SCT029 SCT036 27/23 A2992 RMK AO2 T02670228
KBFM 181853Z 14004KT 8SM RA FEW010 SCT035 BKN085 26/24 A2997 RMK AO2 RAB25 SLP148 P0001 T02610239 $
KBFM 181843Z 1819/1918 34007KT P6SM VCTS FEW005 BKN025CB OVC030 
     TEMPO 1820/1823 1SM TSRA BKN025CB 
     FM190100 18005KT P6SM OVC250
       
KMOB 181915Z 12005KT 10SM FEW014 SCT020 27/24 A2995 RMK AO2 LTG DSNT W RAE12 CB DSNT W P0000 T02720244
KMOB 181842Z 1819/1918 VRB03KT P6SM VCTS SCT011CB BKN040 BKN160 
     FM182000 19007KT P6SM VCTS SCT030CB OVC120 
     TEMPO 1820/1823 1SM TSRA BKN025CB 
     FM190100 15005KT P6SM OVC250
       
KMGM 181930Z 23007KT 1/2SM +RA FG BKN016 BKN024 OVC030 23/22 A2998 RMK AO2 PK WND 19029/1912 LTG DSNT NE RAB16 P0047 T02280217
KMGM 181742Z 1818/1918 25009KT P6SM FEW018 SCT027 BKN040 
     FM181900 20007KT P6SM SHRA VCTS BKN025 BKN040CB 
     TEMPO 1819/1822 20012G25KT 2SM TSRA BKN035CB OVC070 
     FM190000 19004KT P6SM SHRA BKN035 OVC250 
     FM190600 19003KT P6SM OVC015 
     FM191400 24005KT P6SM BKN050
       
KMSL 181853Z AUTO 24005KT 10SM 29/22 A2991 RMK AO2 SLP122 T02940217 $
KMSL 181741Z 1818/1918 18007KT P6SM VCSH SCT025 BKN100 
     FM181900 22006KT P6SM BKN035 
     TEMPO 1820/1824 VRB15KT 3SM -TSRA OVC015CB 
     FM190100 VRB04KT P6SM SCT040 BKN200 
     FM190900 19003KT P6SM OVC015 
     FM191500 25011KT P6SM BKN100
       
KPLR 181915Z AUTO 00000KT 10SM CLR 28/25 A2994 RMK A01
K1A9 181915Z AUTO 19003KT 10SM SCT028 SCT033 BKN050 28/22 A2994 RMK AO2 T02840221
K4A6 181915Z AUTO 00000KT 10SM 28/24 A2993 RMK AO2
KSEM 181915Z AUTO 19009KT 10SM -DZ 24/22 A2994 RMK AO2
KSCD 181915Z AUTO 24004KT 10SM CLR 28/22 A2994 RMK AO2 LTG DSNT SE T02780222
KASN 181915Z AUTO 23004KT 10SM CLR 28/22 A2995 RMK AO2 LTG DSNT NE AND S T02760217
KASN 181742Z 1818/1918 21003KT P6SM SHRA VCTS SCT035CB BKN070 
     TEMPO 1818/1821 20012G25KT 2SM TSRA BKN035CB OVC070 
     FM182100 19004KT P6SM SHRA BKN035 BKN250 
     FM190600 VRB03KT P6SM OVC015 
     FM191400 24005KT P6SM BKN025
       
KTOI 181932Z AUTO 26006KT 3/4SM +RA BR FEW007 BKN023 OVC100 22/22 A3001 RMK AO2 LTG DSNT NE P0020 T02220217
KTOI 181742Z 1818/1918 18003KT P6SM -RA VCTS FEW029 BKN040CB BKN060 
     TEMPO 1818/1822 20012G25KT 2SM TSRA BKN035CB OVC070 
     FM182200 19004KT P6SM SHRA BKN040 OVC070 
     FM190500 18003KT P6SM OVC015 
     FM191400 24005KT P6SM BKN050
       
KTCL 181853Z 18015G19KT 10SM SCT032 SCT060 32/22 A2989 RMK AO2 LTG DSNT W SLP119 T03220222
KTCL 181742Z 1818/1918 20007KT P6SM SHRA FEW028 SCT035 
     TEMPO 1819/1822 20010G20KT 2SM TSRA BKN040CB OVC250 
     FM190100 17006KT P6SM VCSH BKN050 
     FM190700 18003KT P6SM BKN025